createdAt,value
2023-03-06T00:00:26.137Z,89.90
2023-03-06T00:02:54.460Z,90.10
2023-03-06T00:05:22.043Z,90.40
2023-03-06T00:07:49.496Z,90.00
2023-03-06T00:10:20.177Z,89.60
2023-03-06T00:12:47.796Z,90.60
2023-03-06T00:15:15.224Z,90.60
2023-03-06T00:17:42.719Z,90.90
2023-03-06T00:20:11.975Z,90.80
2023-03-06T00:22:40.346Z,90.40
2023-03-06T00:25:10.641Z,90.30
2023-03-06T00:27:38.049Z,90.40
2023-03-06T00:30:06.096Z,90.40
2023-03-06T00:32:33.427Z,90.20
2023-03-06T00:35:02.348Z,90.30
2023-03-06T00:37:29.817Z,90.10
2023-03-06T00:39:57.204Z,90.80
2023-03-06T00:42:25.915Z,90.40
2023-03-06T00:44:53.467Z,89.90
2023-03-06T00:47:22.393Z,90.30
2023-03-06T00:49:50.627Z,90.50
2023-03-06T00:52:18.025Z,91.20
2023-03-06T00:54:45.411Z,90.50
2023-03-06T00:57:13.148Z,90.50
2023-03-06T00:59:40.683Z,91.10
2023-03-06T01:02:08.123Z,91.10
2023-03-06T01:04:36.236Z,90.90
2023-03-06T01:07:04.914Z,91.00
2023-03-06T01:09:32.350Z,90.80
2023-03-06T01:11:59.787Z,90.30
2023-03-06T01:14:28.788Z,90.60
2023-03-06T01:16:56.273Z,90.40
2023-03-06T01:19:23.649Z,90.40
2023-03-06T01:21:51.091Z,91.00
2023-03-06T01:24:18.480Z,90.50
2023-03-06T01:26:45.855Z,90.30
2023-03-06T01:29:13.295Z,90.60
2023-03-06T01:31:40.758Z,91.00
2023-03-06T01:34:08.378Z,91.10
2023-03-06T01:36:35.934Z,91.10
2023-03-06T01:39:03.848Z,90.60
2023-03-06T01:41:32.700Z,91.00
2023-03-06T01:44:00.397Z,91.00
2023-03-06T01:46:44.591Z,90.80
2023-03-06T01:49:33.393Z,91.60
2023-03-06T01:52:11.214Z,91.40
2023-03-06T01:55:04.342Z,91.00
2023-03-06T01:57:35.379Z,91.00
2023-03-06T02:00:10.761Z,91.30
2023-03-06T02:02:44.659Z,91.50
2023-03-06T02:05:12.435Z,91.80
2023-03-06T02:07:42.452Z,90.90
2023-03-06T02:10:13.482Z,91.40
2023-03-06T02:12:43.721Z,90.90
2023-03-06T02:15:14.128Z,91.10
2023-03-06T02:17:44.136Z,91.50
2023-03-06T02:20:19.994Z,91.40
2023-03-06T02:22:56.777Z,91.20
2023-03-06T02:25:36.845Z,92.00
2023-03-06T02:28:08.500Z,91.00
2023-03-06T02:30:36.744Z,91.80
2023-03-06T02:33:05.088Z,91.40
2023-03-06T02:35:35.008Z,91.20
2023-03-06T02:38:08.098Z,91.80
2023-03-06T02:40:35.523Z,91.60
2023-03-06T02:43:03.115Z,91.00
2023-03-06T02:45:42.589Z,91.90
2023-03-06T02:48:10.378Z,91.80
2023-03-06T02:50:37.738Z,91.10
2023-03-06T02:53:05.942Z,91.50
2023-03-06T02:55:34.163Z,91.10
2023-03-06T02:58:02.589Z,91.30
2023-03-06T03:00:31.047Z,91.40
2023-03-06T03:03:01.317Z,91.10
2023-03-06T03:05:28.771Z,91.70
2023-03-06T03:08:01.370Z,91.30
2023-03-06T03:10:29.545Z,91.00
2023-03-06T03:12:58.299Z,91.20
2023-03-06T03:15:26.517Z,91.90
2023-03-06T03:17:53.899Z,91.80
2023-03-06T03:20:23.164Z,91.40
2023-03-06T03:22:54.119Z,92.00
2023-03-06T03:25:23.403Z,91.80
2023-03-06T03:27:52.076Z,91.60
2023-03-06T03:30:20.489Z,91.60
2023-03-06T03:32:47.948Z,91.60
2023-03-06T03:35:15.445Z,91.70
2023-03-06T03:37:42.800Z,91.80
2023-03-06T03:40:10.725Z,91.60
2023-03-06T03:42:38.258Z,91.40
2023-03-06T03:45:07.170Z,91.30
2023-03-06T03:47:34.540Z,91.50
2023-03-06T03:50:02.622Z,91.60
2023-03-06T03:52:30.312Z,91.60
2023-03-06T03:54:58.110Z,91.90
2023-03-06T03:57:26.646Z,91.20
2023-03-06T03:59:55.852Z,91.20
2023-03-06T04:02:49.559Z,91.20
2023-03-06T04:05:24.924Z,91.50
2023-03-06T04:07:52.395Z,91.50
2023-03-06T04:10:20.702Z,91.60
2023-03-06T04:12:48.046Z,92.20
2023-03-06T04:15:15.974Z,91.90
2023-03-06T04:17:45.384Z,91.20
2023-03-06T04:20:16.332Z,91.80
2023-03-06T04:22:44.862Z,91.40
2023-03-06T04:25:13.294Z,91.20
2023-03-06T04:27:40.978Z,91.30
2023-03-06T04:30:09.450Z,91.20
2023-03-06T04:32:36.961Z,91.90
2023-03-06T04:35:05.882Z,91.80
2023-03-06T04:37:38.721Z,91.60
2023-03-06T04:40:07.124Z,91.70
2023-03-06T04:42:34.677Z,91.40
2023-03-06T04:45:02.267Z,91.30
2023-03-06T04:47:29.609Z,91.40
2023-03-06T04:49:57.029Z,91.40
2023-03-06T04:52:24.383Z,91.70
2023-03-06T04:54:51.794Z,91.10
2023-03-06T04:57:19.146Z,91.70
2023-03-06T04:59:46.600Z,91.40
2023-03-06T05:02:13.976Z,91.90
2023-03-06T05:04:41.358Z,91.50
2023-03-06T05:07:10.730Z,91.70
2023-03-06T05:09:39.181Z,91.40
2023-03-06T05:12:06.847Z,91.50
2023-03-06T05:14:34.306Z,91.40
2023-03-06T05:17:01.698Z,91.40
2023-03-06T05:19:29.177Z,91.20
2023-03-06T05:21:56.526Z,91.80
2023-03-06T05:24:24.123Z,91.30
2023-03-06T05:26:54.031Z,92.00
2023-03-06T05:29:21.603Z,91.40
2023-03-06T05:31:49.067Z,91.60
2023-03-06T05:34:17.452Z,91.90
2023-03-06T05:36:46.410Z,91.90
2023-03-06T05:39:13.945Z,91.50
2023-03-06T05:41:41.286Z,91.30
2023-03-06T05:44:08.704Z,91.40
2023-03-06T05:46:36.083Z,91.60
2023-03-06T05:49:03.416Z,91.40
2023-03-06T05:51:31.125Z,91.40
2023-03-06T05:53:58.455Z,91.70
2023-03-06T05:56:26.104Z,91.80
2023-03-06T05:58:53.554Z,92.00
2023-03-06T06:01:21.441Z,91.70
2023-03-06T06:03:48.993Z,92.40
2023-03-06T06:06:16.424Z,92.30
2023-03-06T06:08:44.148Z,92.20
2023-03-06T06:11:12.401Z,92.00
2023-03-06T06:13:40.392Z,92.20
2023-03-06T06:16:12.790Z,92.30
2023-03-06T06:18:41.436Z,92.20
2023-03-06T06:21:11.127Z,91.90
2023-03-06T06:23:38.684Z,92.20
2023-03-06T06:26:08.186Z,91.40
2023-03-06T06:28:36.691Z,92.30
2023-03-06T06:31:12.351Z,91.90
2023-03-06T06:33:40.990Z,93.00
2023-03-06T06:36:21.713Z,92.50
2023-03-06T06:38:50.015Z,93.10
2023-03-06T06:44:08.544Z,92.80
2023-03-06T06:47:20.842Z,92.40
2023-03-06T06:49:24.554Z,91.90
2023-03-06T06:51:51.907Z,92.30
2023-03-06T06:54:20.171Z,92.40
2023-03-06T06:56:47.640Z,91.80
2023-03-06T06:59:17.175Z,91.80
2023-03-06T07:01:45.182Z,92.20
2023-03-06T07:04:13.940Z,91.70
2023-03-06T07:06:42.632Z,92.40
2023-03-06T07:09:10.198Z,91.90
2023-03-06T07:11:38.978Z,92.30
2023-03-06T07:14:06.462Z,92.40
2023-03-06T07:16:34.359Z,92.40
2023-03-06T07:19:01.783Z,92.10
2023-03-06T07:21:29.315Z,92.80
2023-03-06T07:23:57.587Z,91.80
2023-03-06T07:26:26.128Z,92.10
2023-03-06T07:28:54.987Z,92.00
2023-03-06T07:31:25.497Z,92.10
2023-03-06T07:33:54.261Z,92.30
2023-03-06T07:36:23.070Z,92.30
2023-03-06T07:38:50.706Z,91.90
2023-03-06T07:41:21.797Z,92.20
2023-03-06T07:43:50.312Z,91.80
2023-03-06T07:46:18.100Z,92.20
2023-03-06T07:48:45.638Z,91.80
2023-03-06T07:51:23.018Z,92.10
2023-03-06T07:53:50.580Z,92.10
2023-03-06T07:56:17.957Z,92.30
2023-03-06T07:58:46.630Z,91.90
2023-03-06T08:01:20.331Z,92.40
2023-03-06T08:03:50.085Z,91.90
2023-03-06T08:06:21.191Z,92.40
2023-03-06T08:08:49.514Z,92.20
2023-03-06T08:11:18.669Z,91.60
2023-03-06T08:13:48.729Z,92.30
2023-03-06T08:16:17.672Z,91.40
2023-03-06T08:18:46.574Z,92.00
2023-03-06T08:21:16.646Z,91.60
2023-03-06T08:23:45.046Z,92.40
2023-03-06T08:26:18.306Z,92.20
2023-03-06T08:28:46.285Z,92.10
2023-03-06T08:31:32.284Z,91.70
2023-03-06T08:34:03.272Z,91.10
2023-03-06T08:36:30.938Z,92.50
2023-03-06T08:38:58.728Z,92.40
2023-03-06T08:41:26.446Z,91.70
2023-03-06T08:43:54.112Z,91.50
2023-03-06T08:46:23.834Z,91.50
2023-03-06T08:48:51.851Z,91.90
2023-03-06T08:51:19.971Z,92.00
2023-03-06T08:53:47.917Z,91.50
2023-03-06T08:56:19.757Z,91.40
2023-03-06T08:58:47.858Z,91.30
2023-03-06T09:01:22.478Z,91.70
2023-03-06T09:03:50.067Z,91.80
2023-03-06T09:06:17.708Z,91.10
2023-03-06T09:08:45.193Z,91.30
2023-03-06T09:11:14.686Z,91.40
2023-03-06T09:13:43.156Z,91.80
2023-03-06T09:16:11.642Z,91.60
2023-03-06T09:18:39.857Z,92.30
2023-03-06T09:21:08.357Z,91.10
2023-03-06T09:23:37.259Z,91.20
2023-03-06T09:26:05.360Z,91.30
2023-03-06T09:28:34.824Z,90.90
2023-03-06T09:31:05.559Z,90.50
2023-03-06T09:33:33.462Z,90.40
2023-03-06T09:36:02.201Z,90.40
2023-03-06T09:38:29.641Z,90.40
2023-03-06T09:41:11.305Z,90.70
2023-03-06T09:43:41.687Z,90.80
2023-03-06T09:46:35.208Z,91.40
2023-03-06T09:49:40.015Z,91.00
2023-03-06T09:52:23.977Z,91.30
2023-03-06T09:55:15.115Z,91.10
2023-03-06T09:58:07.262Z,90.70
2023-03-06T10:00:37.158Z,90.50
2023-03-06T10:03:21.796Z,89.60
2023-03-06T10:06:04.260Z,90.20
2023-03-06T10:08:49.229Z,90.50
2023-03-06T10:11:26.275Z,88.30
2023-03-06T10:14:27.316Z,90.30
2023-03-06T10:16:56.157Z,89.80
2023-03-06T10:19:30.858Z,89.70
2023-03-06T10:22:07.250Z,89.40
2023-03-06T10:25:02.809Z,89.70
2023-03-06T10:27:43.853Z,90.30
2023-03-06T10:30:30.414Z,88.80
2023-03-06T10:33:01.433Z,87.40
2023-03-06T10:35:32.959Z,90.10
2023-03-06T10:38:23.229Z,90.30
2023-03-06T10:41:47.385Z,89.70
2023-03-06T10:44:14.743Z,89.40
2023-03-06T10:46:44.868Z,88.70
2023-03-06T10:49:27.453Z,89.60
2023-03-06T10:51:57.956Z,88.10
2023-03-06T10:54:25.587Z,88.30
2023-03-06T10:56:53.001Z,87.00
2023-03-06T10:59:28.183Z,87.00
2023-03-06T11:02:23.902Z,88.80
2023-03-06T11:04:55.640Z,88.50
2023-03-06T11:07:26.082Z,87.30
2023-03-06T11:10:01.802Z,86.60
2023-03-06T11:12:39.984Z,86.90
2023-03-06T11:15:07.681Z,87.50
2023-03-06T11:17:38.280Z,84.60
2023-03-06T11:20:14.862Z,85.40
2023-03-06T11:22:48.767Z,85.50
2023-03-06T11:25:19.904Z,84.10
2023-03-06T11:27:57.781Z,83.70
2023-03-06T11:30:33.345Z,84.50
2023-03-06T11:33:05.938Z,84.40
2023-03-06T11:36:08.368Z,84.10
2023-03-06T11:38:50.236Z,83.40
2023-03-06T11:41:49.827Z,83.80
2023-03-06T11:44:30.544Z,83.50
2023-03-06T11:47:36.787Z,83.50
2023-03-06T11:50:17.787Z,83.90
2023-03-06T11:52:48.226Z,80.90
2023-03-06T11:55:44.855Z,83.80
2023-03-06T11:58:53.467Z,83.60
2023-03-06T12:01:33.815Z,83.80
2023-03-06T12:04:35.475Z,83.20
2023-03-06T12:07:33.836Z,84.00
2023-03-06T12:10:10.163Z,84.30
2023-03-06T12:12:43.410Z,83.90
2023-03-06T12:15:32.043Z,83.90
2023-03-06T12:18:17.024Z,84.30
2023-03-06T12:21:15.398Z,84.00
2023-03-06T12:24:05.436Z,84.00
2023-03-06T12:26:33.026Z,82.90
2023-03-06T12:29:18.620Z,82.60
2023-03-06T12:32:28.986Z,82.90
2023-03-06T12:35:18.539Z,82.30
2023-03-06T12:38:25.682Z,82.20
2023-03-06T12:41:33.338Z,82.40
2023-03-06T12:44:19.660Z,82.50
2023-03-06T12:46:54.155Z,83.90
2023-03-06T12:49:38.603Z,82.40
2023-03-06T12:52:09.785Z,81.90
2023-03-06T12:54:39.807Z,82.30
2023-03-06T12:57:09.427Z,82.80
2023-03-06T12:59:48.612Z,82.20
2023-03-06T13:02:46.199Z,83.20
2023-03-06T13:05:24.225Z,82.30
2023-03-06T13:08:11.128Z,82.20
2023-03-06T13:10:41.753Z,81.20
2023-03-06T13:13:32.322Z,81.80
2023-03-06T13:16:21.401Z,81.60
2023-03-06T13:19:00.815Z,82.70
2023-03-06T13:21:47.982Z,81.40
2023-03-06T13:24:18.516Z,80.90
2023-03-06T13:26:45.847Z,79.40
2023-03-06T13:29:39.095Z,79.90
2023-03-06T13:32:17.361Z,81.20
2023-03-06T13:34:50.073Z,81.70
2023-03-06T13:37:17.481Z,79.80
2023-03-06T13:40:11.068Z,82.80
2023-03-06T13:43:03.141Z,81.10
2023-03-06T13:45:38.661Z,81.90
2023-03-06T13:48:30.234Z,80.20
2023-03-06T13:50:55.947Z,80.80
2023-03-06T13:53:29.205Z,79.10
2023-03-06T13:56:06.576Z,78.90
2023-03-06T13:58:47.949Z,77.20
2023-03-06T14:01:33.998Z,80.20
2023-03-06T14:04:32.760Z,79.00
2023-03-06T14:07:22.439Z,79.90
2023-03-06T14:10:00.562Z,81.20
2023-03-06T14:12:35.390Z,78.90
2023-03-06T14:15:26.069Z,79.10
2023-03-06T14:18:06.474Z,78.10
2023-03-06T14:20:45.883Z,77.60
2023-03-06T14:23:15.536Z,77.60
2023-03-06T14:25:45.804Z,77.20
2023-03-06T14:28:28.187Z,76.90
2023-03-06T14:30:57.032Z,78.20
2023-03-06T14:33:50.762Z,75.90
2023-03-06T14:36:24.296Z,77.10
2023-03-06T14:38:59.519Z,76.00
2023-03-06T14:41:34.763Z,76.50
2023-03-06T14:44:19.403Z,76.50
2023-03-06T14:46:49.826Z,76.20
2023-03-06T14:49:20.594Z,76.10
2023-03-06T14:51:56.916Z,76.20
2023-03-06T14:54:31.829Z,77.30
2023-03-06T14:57:06.407Z,75.20
2023-03-06T14:59:43.427Z,76.10
2023-03-06T15:02:18.584Z,73.90
2023-03-06T15:04:51.308Z,74.70
2023-03-06T15:07:30.442Z,75.50
2023-03-06T15:09:58.416Z,74.60
2023-03-06T15:12:33.852Z,73.40
2023-03-06T15:15:08.045Z,73.40
2023-03-06T15:17:41.300Z,72.90
2023-03-06T15:20:47.489Z,73.90
2023-03-06T15:23:27.263Z,73.90
2023-03-06T15:26:18.394Z,73.70
2023-03-06T15:28:47.528Z,74.40
2023-03-06T15:31:21.997Z,72.20
2023-03-06T15:34:23.722Z,74.10
2023-03-06T15:36:57.519Z,74.00
2023-03-06T15:39:41.631Z,75.10
2023-03-06T15:42:26.363Z,73.60
2023-03-06T15:45:03.276Z,74.50
2023-03-06T15:47:31.104Z,74.70
2023-03-06T15:49:58.629Z,73.20
2023-03-06T15:52:26.027Z,73.90
2023-03-06T15:54:53.483Z,73.40
2023-03-06T15:57:24.980Z,73.60
2023-03-06T15:59:53.620Z,75.50
2023-03-06T16:02:23.143Z,74.80
2023-03-06T16:04:52.634Z,75.70
2023-03-06T16:07:20.705Z,74.80
2023-03-06T16:09:48.358Z,76.20
2023-03-06T16:12:18.594Z,76.10
2023-03-06T16:14:50.249Z,78.10
2023-03-06T16:17:17.782Z,78.60
2023-03-06T16:19:45.251Z,77.60
2023-03-06T16:22:12.883Z,77.70
2023-03-06T16:24:43.337Z,78.70
2023-03-06T16:27:18.874Z,79.20
2023-03-06T16:29:46.586Z,81.80
2023-03-06T16:32:14.160Z,79.70
2023-03-06T16:34:41.709Z,81.40
2023-03-06T16:37:12.774Z,80.90
2023-03-06T16:39:40.266Z,81.70
2023-03-06T16:42:07.748Z,81.40
2023-03-06T16:44:35.128Z,81.30
2023-03-06T16:47:02.533Z,81.20
2023-03-06T16:49:30.448Z,82.50
2023-03-06T16:51:58.202Z,81.70
2023-03-06T16:54:26.358Z,83.40
2023-03-06T16:56:54.028Z,81.90
2023-03-06T16:59:21.569Z,82.30
2023-03-06T17:01:49.077Z,82.30
2023-03-06T17:04:16.570Z,81.90
2023-03-06T17:06:44.044Z,83.10
2023-03-06T17:09:11.629Z,83.60
2023-03-06T17:11:39.054Z,82.10
2023-03-06T17:14:07.080Z,82.20
2023-03-06T17:16:37.277Z,82.60
2023-03-06T17:19:04.819Z,82.60
2023-03-06T17:21:35.328Z,82.30
2023-03-06T17:24:03.890Z,82.30
2023-03-06T17:26:31.394Z,82.30
2023-03-06T17:28:58.897Z,83.10
2023-03-06T17:31:28.080Z,82.60
2023-03-06T17:34:00.557Z,83.80
2023-03-06T17:36:29.496Z,84.30
2023-03-06T17:39:01.973Z,83.60
2023-03-06T17:41:32.785Z,85.70
2023-03-06T17:44:01.636Z,82.90
2023-03-06T17:46:29.158Z,83.50
2023-03-06T17:48:56.751Z,85.20
2023-03-06T17:51:31.943Z,84.10
2023-03-06T17:53:59.434Z,86.60
2023-03-06T17:56:27.497Z,85.70
2023-03-06T17:58:55.356Z,85.60
2023-03-06T18:01:27.305Z,85.80
2023-03-06T18:03:54.887Z,86.40
2023-03-06T18:06:22.776Z,86.40
2023-03-06T18:08:52.745Z,85.50
2023-03-06T18:11:27.599Z,86.40
2023-03-06T18:13:55.145Z,88.30
2023-03-06T18:16:24.324Z,86.70
2023-03-06T18:18:53.664Z,87.90
2023-03-06T18:21:22.219Z,87.30
2023-03-06T18:23:51.579Z,88.30
2023-03-06T18:26:22.860Z,87.00
2023-03-06T18:28:55.488Z,87.90
2023-03-06T18:31:27.919Z,89.30
2023-03-06T18:33:58.429Z,85.90
2023-03-06T18:36:28.480Z,88.40
2023-03-06T18:38:56.838Z,89.10
2023-03-06T18:41:24.913Z,87.40
2023-03-06T18:43:56.990Z,88.40
2023-03-06T18:46:25.970Z,89.20
2023-03-06T18:48:54.679Z,87.80
2023-03-06T18:51:22.357Z,87.50
2023-03-06T18:53:49.747Z,88.70
2023-03-06T18:56:20.268Z,88.50
2023-03-06T18:58:48.684Z,89.20
2023-03-06T19:01:17.018Z,87.50
2023-03-06T19:03:45.205Z,88.20
2023-03-06T19:06:16.816Z,89.00
2023-03-06T19:08:44.883Z,90.10
2023-03-06T19:11:17.036Z,89.80
2023-03-06T19:13:45.010Z,90.40
2023-03-06T19:16:21.331Z,90.60
2023-03-06T19:18:49.049Z,90.60
2023-03-06T19:21:19.404Z,89.30
2023-03-06T19:23:47.349Z,90.40
2023-03-06T19:26:15.512Z,90.00
2023-03-06T19:28:43.286Z,89.10
2023-03-06T19:31:16.299Z,90.90
2023-03-06T19:33:43.838Z,90.50
2023-03-06T19:36:13.450Z,90.30
2023-03-06T19:38:42.009Z,90.20
2023-03-06T19:41:13.882Z,90.20
2023-03-06T19:43:43.100Z,90.80
2023-03-06T19:46:14.430Z,90.00
2023-03-06T19:48:42.612Z,90.80
2023-03-06T19:51:10.723Z,90.30
2023-03-06T19:53:39.876Z,90.00
2023-03-06T19:56:19.817Z,90.00
2023-03-06T19:58:47.588Z,91.10
2023-03-06T20:01:17.738Z,89.60
2023-03-06T20:03:45.256Z,90.40
2023-03-06T20:06:18.581Z,90.10
2023-03-06T20:08:47.223Z,90.70
2023-03-06T20:11:20.016Z,90.20
2023-03-06T20:13:48.041Z,90.10
2023-03-06T20:16:16.539Z,90.30
2023-03-06T20:18:44.731Z,91.10
2023-03-06T20:21:12.650Z,90.70
2023-03-06T20:23:40.852Z,90.50
2023-03-06T20:26:11.987Z,90.90
2023-03-06T20:28:40.678Z,91.20
2023-03-06T20:31:18.717Z,91.00
2023-03-06T20:33:47.868Z,91.40
2023-03-06T20:36:17.670Z,91.30
2023-03-06T20:38:45.760Z,91.40
2023-03-06T20:41:17.972Z,91.10
2023-03-06T20:43:45.784Z,91.30
2023-03-06T20:46:15.907Z,90.90
2023-03-06T20:48:43.898Z,90.80
2023-03-06T20:51:21.179Z,91.30
2023-03-06T20:53:50.202Z,91.10
2023-03-06T20:56:19.766Z,91.20
2023-03-06T20:58:47.225Z,91.40
2023-03-06T21:01:25.877Z,91.00
2023-03-06T21:03:53.759Z,92.40
2023-03-06T21:06:21.727Z,91.30
2023-03-06T21:08:49.486Z,92.00
2023-03-06T21:11:18.054Z,91.80
2023-03-06T21:13:45.909Z,91.60
2023-03-06T21:16:18.023Z,91.20
2023-03-06T21:18:46.384Z,92.20
2023-03-06T21:21:17.028Z,91.60
2023-03-06T21:23:45.553Z,92.10
2023-03-06T21:26:14.828Z,91.60
2023-03-06T21:28:42.701Z,92.20
2023-03-06T21:31:12.334Z,91.90
2023-03-06T21:33:40.197Z,91.90
2023-03-06T21:36:08.109Z,92.10
2023-03-06T21:38:35.640Z,92.50
2023-03-06T21:41:08.118Z,92.30
2023-03-06T21:43:35.703Z,92.90
2023-03-06T21:46:03.561Z,92.60
2023-03-06T21:48:31.288Z,92.60
2023-03-06T21:51:11.216Z,92.90
2023-03-06T21:53:41.045Z,93.40
2023-03-06T21:56:09.570Z,92.20
2023-03-06T21:58:38.530Z,92.50
2023-03-06T22:01:14.014Z,93.00
2023-03-06T22:03:41.516Z,93.50
2023-03-06T22:06:14.631Z,92.40
2023-03-06T22:08:43.027Z,93.20
2023-03-06T22:11:17.531Z,93.10
2023-03-06T22:13:45.674Z,93.40
2023-03-06T22:16:14.334Z,93.00
2023-03-06T22:18:45.561Z,93.10
2023-03-06T22:21:15.550Z,93.50
2023-03-06T22:23:43.774Z,93.10
2023-03-06T22:26:13.681Z,92.70
2023-03-06T22:28:42.589Z,93.30
2023-03-06T22:31:16.485Z,93.00
2023-03-06T22:33:44.184Z,93.30
2023-03-06T22:36:15.806Z,93.10
2023-03-06T22:38:45.251Z,93.30
2023-03-06T22:41:17.081Z,93.50
2023-03-06T22:43:47.019Z,92.70
2023-03-06T22:46:16.959Z,92.90
2023-03-06T22:48:44.975Z,93.10
2023-03-06T22:51:15.291Z,93.10
2023-03-06T22:53:43.269Z,93.20
2023-03-06T22:56:15.021Z,93.40
2023-03-06T22:58:44.716Z,93.60
2023-03-06T23:01:13.745Z,93.20
2023-03-06T23:03:43.669Z,94.10
2023-03-06T23:06:14.395Z,94.00
2023-03-06T23:08:42.634Z,93.70
2023-03-06T23:11:12.911Z,93.70
2023-03-06T23:13:59.263Z,94.00
2023-03-06T23:16:45.641Z,93.40
2023-03-06T23:19:31.796Z,93.40
2023-03-06T23:22:18.205Z,93.40
2023-03-06T23:25:05.993Z,93.40
2023-03-06T23:27:35.998Z,93.50
2023-03-06T23:30:06.042Z,94.00
2023-03-06T23:32:33.833Z,94.10
2023-03-06T23:35:01.516Z,93.60
2023-03-06T23:37:30.472Z,93.70
2023-03-06T23:39:58.113Z,93.50
2023-03-06T23:42:25.510Z,93.90
2023-03-06T23:44:52.907Z,93.90
2023-03-06T23:47:20.289Z,93.80
2023-03-06T23:49:47.726Z,94.30
2023-03-06T23:52:15.057Z,93.90
2023-03-06T23:54:42.445Z,94.20
2023-03-06T23:57:10.098Z,94.00
2023-03-06T23:59:37.526Z,93.90
